Time;durP1;ratioP1;P1;durP2;ratioP2;P2;SDS_P1;SDS_P2;PMS_P1;PMS_P2;Temp;Humidity;BMP_temperature;BMP_pressure;BME280_temperature;BME280_humidity;BME280_pressure;Samples;Min_cycle;Max_cycle;Signal;HPM_P1;HPM_P2
2021/12/02 00:01:20;;;;;;;3.45;1.45;;;4.80;99.90;;;;;;5121549;27;20057;-73
2021/12/02 00:03:47;;;;;;;6.65;1.58;;;4.80;99.90;;;;;;5140785;27;20657;-74
2021/12/02 00:06:15;;;;;;;3.22;1.20;;;4.70;99.90;;;;;;5141236;27;20055;-74
2021/12/02 00:08:42;;;;;;;3.90;1.20;;;4.70;99.90;;;;;;5139608;27;20054;-74
2021/12/02 00:11:08;;;;;;;6.60;1.10;;;4.60;99.90;;;;;;5122080;27;20049;-74
2021/12/02 00:16:35;;;;;;;3.75;1.65;;;4.60;99.90;;;;;;5140822;27;20062;-74
2021/12/02 00:21:51;;;;;;;4.10;1.15;;;4.50;99.90;;;;;;5088271;27;20046;-74
2021/12/02 00:24:22;;;;;;;2.17;1.10;;;4.40;99.90;;;;;;5122579;27;20043;-73
2021/12/02 00:26:51;;;;;;;2.70;1.05;;;4.40;99.90;;;;;;5121799;27;20768;-74
2021/12/02 00:29:19;;;;;;;2.85;1.02;;;4.40;99.90;;;;;;5140260;27;20042;-74
2021/12/02 00:31:47;;;;;;;5.72;1.35;;;4.30;99.90;;;;;;5140496;27;20126;-74
2021/12/02 00:34:13;;;;;;;4.25;1.48;;;4.30;99.90;;;;;;5121729;27;20056;-73
2021/12/02 00:36:40;;;;;;;3.45;1.83;;;4.20;99.90;;;;;;5139667;27;20046;-74
2021/12/02 00:39:09;;;;;;;3.65;1.77;;;4.20;99.90;;;;;;5121120;27;20043;-74
2021/12/02 00:41:35;;;;;;;2.20;1.92;;;4.10;99.90;;;;;;5139722;27;20069;-74
2021/12/02 00:44:01;;;;;;;3.13;1.80;;;4.10;99.90;;;;;;5139633;27;20050;-73
2021/12/02 00:46:31;;;;;;;1.38;1.00;;;4.00;99.90;;;;;;5140719;27;20074;-73
2021/12/02 00:49:01;;;;;;;2.28;1.30;;;4.00;99.90;;;;;;5121449;27;20046;-74
2021/12/02 00:51:27;;;;;;;3.05;1.45;;;4.00;99.90;;;;;;5140019;27;20412;-74
2021/12/02 00:53:54;;;;;;;4.25;1.55;;;3.90;99.90;;;;;;5129056;27;20031;-73
2021/12/02 00:56:25;;;;;;;4.13;1.73;;;3.90;99.90;;;;;;5133381;27;20046;-74
2021/12/02 00:58:52;;;;;;;4.78;2.33;;;3.90;99.90;;;;;;5126581;27;20919;-74
2021/12/02 01:01:20;;;;;;;4.38;1.30;;;3.90;99.90;;;;;;5103184;27;20908;-74
2021/12/02 01:03:49;;;;;;;2.90;1.30;;;3.90;99.90;;;;;;5118168;27;20747;-74
2021/12/02 01:06:15;;;;;;;2.97;1.10;;;3.90;99.90;;;;;;5127770;27;20118;-74
2021/12/02 01:08:41;;;;;;;3.90;1.65;;;4.00;99.90;;;;;;5132777;27;20157;-74
2021/12/02 01:11:09;;;;;;;3.10;1.00;;;4.00;99.90;;;;;;5114477;27;20046;-74
2021/12/02 01:13:34;;;;;;;10.85;2.05;;;4.00;99.90;;;;;;5116338;27;20103;-74
2021/12/02 01:16:00;;;;;;;1.92;1.05;;;4.00;99.90;;;;;;5142138;27;20039;-73
2021/12/02 01:18:26;;;;;;;4.75;1.17;;;4.00;99.90;;;;;;5133135;27;20070;-73
2021/12/02 01:20:53;;;;;;;4.38;1.67;;;4.00;99.90;;;;;;5112713;27;20045;-74
2021/12/02 01:23:21;;;;;;;9.15;1.83;;;4.00;99.90;;;;;;5132902;27;20509;-74
2021/12/02 01:26:03;;;;;;;6.22;1.50;;;4.00;99.90;;;;;;5138115;27;20133;-74
2021/12/02 01:28:30;;;;;;;5.88;1.33;;;4.00;99.90;;;;;;5133367;27;20051;-74
2021/12/02 01:30:56;;;;;;;3.72;1.30;;;4.00;99.90;;;;;;5145079;27;20115;-74
2021/12/02 01:33:23;;;;;;;3.50;2.17;;;4.00;99.90;;;;;;5125694;27;20050;-74
2021/12/02 01:35:51;;;;;;;3.95;1.15;;;4.00;99.90;;;;;;5136575;27;20167;-75
2021/12/02 01:38:17;;;;;;;5.22;1.65;;;4.10;99.90;;;;;;5118867;27;20134;-74
2021/12/02 01:40:44;;;;;;;2.05;0.80;;;4.20;99.90;;;;;;5137006;27;20050;-73
2021/12/02 01:43:14;;;;;;;1.27;1.17;;;5.30;99.90;;;;;;5115225;27;20043;-74
2021/12/02 01:45:40;;;;;;;2.47;0.65;;;4.30;99.90;;;;;;5128735;27;20497;-73
2021/12/02 01:48:10;;;;;;;0.65;0.47;;;4.30;99.90;;;;;;5134807;27;20170;-72
2021/12/02 01:50:39;;;;;;;1.05;0.80;;;4.30;99.90;;;;;;5115236;27;20481;-72
2021/12/02 01:53:05;;;;;;;2.33;1.08;;;4.30;99.90;;;;;;5111744;27;20065;-72
2021/12/02 01:55:31;;;;;;;1.00;0.70;;;4.20;99.90;;;;;;5135837;27;20138;-74
2021/12/02 01:58:00;;;;;;;2.35;0.75;;;4.10;99.90;;;;;;5128594;27;20043;-73
2021/12/02 02:00:44;;;;;;;1.00;0.45;;;4.10;99.90;;;;;;5121771;27;20054;-72
2021/12/02 02:03:15;;;;;;;1.50;0.70;;;4.10;99.90;;;;;;5131248;27;20102;-73
2021/12/02 02:05:42;;;;;;;1.88;1.05;;;4.10;99.90;;;;;;5133468;27;20848;-73
2021/12/02 02:08:17;;;;;;;2.65;0.70;;;4.10;99.90;;;;;;5137651;27;20058;-73
2021/12/02 02:10:44;;;;;;;1.27;0.80;;;4.00;99.90;;;;;;5145212;27;20047;-74
2021/12/02 02:13:11;;;;;;;1.52;1.20;;;4.00;99.90;;;;;;5126870;27;20055;-74
2021/12/02 02:15:49;;;;;;;2.50;1.13;;;3.60;99.90;;;;;;5121236;27;20046;-73
2021/12/02 02:18:23;;;;;;;0.98;0.90;;;3.90;99.90;;;;;;5139265;27;20034;-73
2021/12/02 02:23:25;;;;;;;1.27;0.75;;;4.30;99.90;;;;;;5136822;27;20055;-74
2021/12/02 02:25:51;;;;;;;2.10;0.77;;;3.90;99.90;;;;;;5120377;27;20162;-73
2021/12/02 02:28:17;;;;;;;2.30;0.68;;;3.90;99.90;;;;;;5119736;27;20333;-74
2021/12/02 02:30:43;;;;;;;4.13;1.20;;;3.90;99.90;;;;;;5138984;27;20039;-74
2021/12/02 02:33:13;;;;;;;1.35;0.55;;;3.90;99.90;;;;;;5138489;27;20118;-73
2021/12/02 02:35:40;;;;;;;7.38;0.98;;;3.90;99.90;;;;;;5119854;27;20054;-74
2021/12/02 02:38:06;;;;;;;1.17;0.60;;;3.90;99.90;;;;;;5128195;27;20077;-74
2021/12/02 02:40:32;;;;;;;1.02;1.00;;;3.80;99.90;;;;;;5137480;27;20393;-74
2021/12/02 02:43:06;;;;;;;1.85;0.70;;;3.80;99.90;;;;;;5139240;27;20050;-74
2021/12/02 02:45:32;;;;;;;4.03;0.70;;;3.80;99.90;;;;;;5125865;27;20050;-74
2021/12/02 02:47:57;;;;;;;1.52;1.42;;;3.80;99.90;;;;;;5139388;27;20096;-74
2021/12/02 02:50:23;;;;;;;1.50;0.95;;;3.70;99.90;;;;;;5138882;27;20038;-74
2021/12/02 02:52:49;;;;;;;0.65;0.43;;;3.70;99.90;;;;;;5130262;27;20122;-73
2021/12/02 02:55:22;;;;;;;2.05;0.85;;;3.70;99.90;;;;;;5137293;27;20062;-73
2021/12/02 02:58:00;;;;;;;2.60;0.77;;;3.70;99.90;;;;;;5112827;27;20754;-73
2021/12/02 03:00:31;;;;;;;0.82;0.82;;;3.70;99.90;;;;;;5119846;27;20075;-73
2021/12/02 03:03:18;;;;;;;1.00;0.60;;;3.70;99.90;;;;;;5119028;27;20465;-73
2021/12/02 03:06:05;;;;;;;2.70;0.90;;;3.80;99.90;;;;;;5103132;27;20374;-73
2021/12/02 03:08:40;;;;;;;3.83;1.10;;;3.80;99.90;;;;;;5128887;27;20103;-73
2021/12/02 03:11:06;;;;;;;1.30;0.50;;;3.80;99.90;;;;;;5136965;27;20057;-72
2021/12/02 03:13:37;;;;;;;2.30;0.90;;;3.80;99.90;;;;;;5138172;27;20043;-73
2021/12/02 03:18:51;;;;;;;4.55;2.05;;;3.90;99.90;;;;;;5138660;27;20039;-73
2021/12/02 03:21:21;;;;;;;6.45;1.30;;;3.90;99.90;;;;;;5131597;27;20129;-73
2021/12/02 03:23:51;;;;;;;2.25;1.13;;;4.00;99.90;;;;;;5124853;27;20954;-72
2021/12/02 03:26:17;;;;;;;3.45;1.13;;;4.00;99.90;;;;;;5141003;27;20049;-74
2021/12/02 03:28:43;;;;;;;0.68;0.68;;;4.00;99.90;;;;;;5109940;27;20047;-75
2021/12/02 03:31:10;;;;;;;4.63;1.05;;;4.00;99.90;;;;;;5123260;27;20086;-75
2021/12/02 03:33:35;;;;;;;1.40;0.55;;;4.00;99.90;;;;;;5142919;27;20490;-75
2021/12/02 03:36:01;;;;;;;1.58;0.63;;;4.00;99.90;;;;;;5141788;27;20050;-75
2021/12/02 03:38:26;;;;;;;4.07;0.90;;;4.00;99.90;;;;;;5143924;27;20728;-77
2021/12/02 03:40:52;;;;;;;0.63;0.55;;;4.00;99.90;;;;;;5126190;27;20050;-77
2021/12/02 03:43:18;;;;;;;1.52;0.70;;;3.90;99.90;;;;;;5155932;27;20042;-77
2021/12/02 03:45:43;;;;;;;2.00;1.55;;;3.90;99.90;;;;;;5143950;27;20383;-78
2021/12/02 03:48:09;;;;;;;1.88;0.68;;;3.80;99.90;;;;;;5134275;27;20134;-77
2021/12/02 03:50:35;;;;;;;0.68;0.47;;;3.80;99.90;;;;;;5134961;27;20049;-77
2021/12/02 03:53:00;;;;;;;0.88;0.88;;;3.80;99.90;;;;;;5140084;27;20456;-77
2021/12/02 03:55:26;;;;;;;3.63;1.55;;;3.70;99.90;;;;;;5142282;27;20110;-77
2021/12/02 03:57:51;;;;;;;1.35;0.60;;;3.60;99.90;;;;;;5142806;27;20189;-77
2021/12/02 04:00:17;;;;;;;1.80;0.57;;;3.60;99.90;;;;;;5123075;27;20046;-77
2021/12/02 04:02:43;;;;;;;2.60;0.50;;;3.50;99.90;;;;;;5123837;27;20047;-77
2021/12/02 04:05:08;;;;;;;0.70;0.43;;;3.50;99.90;;;;;;5141371;27;20082;-78
2021/12/02 04:07:34;;;;;;;1.10;0.40;;;3.40;99.90;;;;;;5115396;27;20043;-80
2021/12/02 04:10:01;;;;;;;0.77;0.60;;;3.40;99.90;;;;;;5139195;27;20050;-78
2021/12/02 04:12:45;;;;;;;0.75;0.50;;;3.40;99.90;;;;;;5142170;27;20721;-78
2021/12/02 04:15:14;;;;;;;1.42;0.63;;;3.40;99.90;;;;;;5130849;27;20078;-77
2021/12/02 04:17:41;;;;;;;1.05;0.60;;;3.30;99.90;;;;;;5141862;27;20197;-77
2021/12/02 04:20:18;;;;;;;3.85;0.75;;;3.30;99.90;;;;;;5141525;27;20054;-77
2021/12/02 04:22:44;;;;;;;0.93;0.50;;;3.30;99.90;;;;;;5142900;27;20046;-77
2021/12/02 04:25:11;;;;;;;0.68;0.68;;;3.30;99.90;;;;;;5141469;27;20057;-76
2021/12/02 04:27:37;;;;;;;1.77;0.80;;;3.20;99.90;;;;;;5108406;27;20039;-76
2021/12/02 04:30:05;;;;;;;0.68;0.68;;;3.10;99.90;;;;;;5124459;27;20059;-76
2021/12/02 04:32:31;;;;;;;2.08;0.60;;;3.10;99.90;;;;;;5141454;27;20867;-76
2021/12/02 04:34:56;;;;;;;1.42;0.73;;;3.10;99.90;;;;;;5140951;27;20054;-76
2021/12/02 04:37:22;;;;;;;1.55;0.68;;;3.00;99.90;;;;;;5145990;27;20078;-75
2021/12/02 04:39:48;;;;;;;1.40;0.80;;;4.00;99.90;;;;;;5141698;27;20042;-75
2021/12/02 04:42:13;;;;;;;2.30;1.95;;;2.90;99.90;;;;;;5140997;27;20143;-75
2021/12/02 04:44:39;;;;;;;2.28;1.23;;;2.90;99.90;;;;;;5122432;27;20091;-75
2021/12/02 04:47:04;;;;;;;1.45;0.77;;;2.90;99.90;;;;;;5141563;27;20499;-75
2021/12/02 04:49:30;;;;;;;2.45;1.13;;;2.80;99.90;;;;;;5134717;27;20059;-76
2021/12/02 04:51:55;;;;;;;1.83;0.98;;;2.80;99.90;;;;;;5140885;27;20039;-75
2021/12/02 04:54:21;;;;;;;4.72;0.88;;;2.90;99.90;;;;;;5123276;27;20568;-75
2021/12/02 04:56:47;;;;;;;1.08;0.90;;;2.90;99.90;;;;;;5127521;27;20074;-75
2021/12/02 04:59:12;;;;;;;0.52;0.52;;;3.00;99.90;;;;;;5141542;27;20050;-74
2021/12/02 05:01:38;;;;;;;3.50;1.38;;;3.00;99.90;;;;;;5140930;27;20118;-74
2021/12/02 05:04:04;;;;;;;1.15;0.93;;;3.00;99.90;;;;;;5141135;27;20080;-74
2021/12/02 05:06:29;;;;;;;0.85;0.70;;;3.00;99.90;;;;;;5141254;27;20055;-74
2021/12/02 05:08:55;;;;;;;3.28;1.13;;;3.00;99.90;;;;;;5140632;27;20568;-76
2021/12/02 05:11:21;;;;;;;3.63;1.30;;;3.10;99.90;;;;;;5140757;27;20039;-76
2021/12/02 05:13:46;;;;;;;1.98;0.75;;;3.20;99.90;;;;;;5121692;27;20062;-76
2021/12/02 05:16:12;;;;;;;1.55;0.90;;;3.20;99.90;;;;;;5141424;27;20043;-75
2021/12/02 05:18:39;;;;;;;1.90;0.90;;;3.30;99.90;;;;;;5121608;27;20042;-78
2021/12/02 05:21:05;;;;;;;1.08;1.08;;;3.30;99.90;;;;;;5141721;27;20082;-82
2021/12/02 05:23:30;;;;;;;1.27;0.75;;;3.30;99.90;;;;;;5121753;27;20863;-82
2021/12/02 05:25:56;;;;;;;3.70;0.80;;;3.30;99.90;;;;;;5140471;27;20039;-81
2021/12/02 05:28:21;;;;;;;0.77;0.70;;;3.30;99.90;;;;;;5141880;27;20818;-79
2021/12/02 05:30:47;;;;;;;1.05;0.70;;;3.20;99.90;;;;;;5120646;27;20069;-79
2021/12/02 05:33:13;;;;;;;0.55;0.55;;;3.20;99.90;;;;;;5130660;27;20040;-79
2021/12/02 05:35:39;;;;;;;2.05;0.80;;;3.30;99.90;;;;;;5136059;27;20054;-80
2021/12/02 05:38:05;;;;;;;1.48;0.73;;;3.30;99.90;;;;;;5122329;27;20035;-77
2021/12/02 05:40:31;;;;;;;1.50;1.27;;;3.30;99.90;;;;;;5140263;27;20083;-79
2021/12/02 05:42:57;;;;;;;0.80;0.80;;;3.30;99.90;;;;;;5141445;27;20061;-78
2021/12/02 05:45:23;;;;;;;0.80;0.80;;;3.30;99.90;;;;;;5126755;27;20055;-78
2021/12/02 05:47:48;;;;;;;2.25;0.90;;;3.40;99.90;;;;;;5119380;27;20046;-80
2021/12/02 05:50:14;;;;;;;1.52;0.90;;;3.40;99.90;;;;;;5142158;27;20046;-80
2021/12/02 05:52:40;;;;;;;1.10;0.80;;;3.40;99.90;;;;;;5133213;27;20154;-81
2021/12/02 05:55:06;;;;;;;1.55;0.82;;;3.40;99.90;;;;;;5140834;27;20046;-80
2021/12/02 05:57:32;;;;;;;1.85;0.80;;;3.40;99.90;;;;;;5139740;27;20039;-81
2021/12/02 05:59:58;;;;;;;1.95;0.57;;;3.40;99.90;;;;;;5139089;27;20154;-80
2021/12/02 06:02:24;;;;;;;1.67;0.77;;;3.40;99.90;;;;;;5140272;27;20046;-78
2021/12/02 06:04:53;;;;;;;3.10;1.38;;;3.40;99.90;;;;;;5139642;27;20806;-77
2021/12/02 06:07:19;;;;;;;0.73;0.73;;;3.20;99.90;;;;;;5120958;27;20050;-76
2021/12/02 06:09:46;;;;;;;3.03;0.85;;;3.10;99.90;;;;;;5138766;27;20054;-78
2021/12/02 06:12:13;;;;;;;0.80;0.80;;;3.00;99.90;;;;;;5140139;27;20569;-77
2021/12/02 06:14:39;;;;;;;1.15;1.05;;;3.00;99.90;;;;;;5139387;27;20129;-78
2021/12/02 06:17:05;;;;;;;0.80;0.80;;;2.90;99.90;;;;;;5120563;27;20108;-78
2021/12/02 06:19:31;;;;;;;1.20;0.70;;;2.90;99.90;;;;;;5140374;27;20110;-78
2021/12/02 06:21:56;;;;;;;0.55;0.40;;;2.90;99.90;;;;;;5138932;27;20037;-78
2021/12/02 06:24:29;;;;;;;0.90;0.90;;;2.80;99.90;;;;;;5139908;27;20047;-78
2021/12/02 06:26:56;;;;;;;0.95;0.80;;;2.80;99.90;;;;;;5140022;27;20042;-79
2021/12/02 06:29:21;;;;;;;2.92;0.57;;;2.70;99.90;;;;;;5121534;27;20093;-76
2021/12/02 06:31:47;;;;;;;0.73;0.60;;;2.70;99.90;;;;;;5120873;27;20145;-74
2021/12/02 06:34:12;;;;;;;0.38;0.38;;;2.70;99.90;;;;;;5137233;27;20053;-75
2021/12/02 06:36:38;;;;;;;1.23;0.77;;;2.60;99.90;;;;;;5121276;27;20050;-75
2021/12/02 06:39:05;;;;;;;0.40;0.40;;;2.50;99.90;;;;;;5122070;27;20053;-74
2021/12/02 06:41:31;;;;;;;3.88;0.70;;;2.40;99.90;;;;;;5138810;27;20035;-73
2021/12/02 06:43:57;;;;;;;2.45;0.77;;;2.30;99.90;;;;;;5121695;27;20580;-73
2021/12/02 06:46:23;;;;;;;1.25;0.52;;;2.30;99.90;;;;;;5139162;27;20138;-73
2021/12/02 06:48:49;;;;;;;0.98;0.40;;;2.20;99.90;;;;;;5154478;27;20638;-72
2021/12/02 06:51:17;;;;;;;2.55;1.05;;;2.20;99.90;;;;;;5142728;27;20043;-72
2021/12/02 06:53:43;;;;;;;0.60;0.60;;;2.20;99.90;;;;;;5137668;27;20058;-73
2021/12/02 06:56:09;;;;;;;0.17;0.17;;;2.20;99.90;;;;;;5135946;27;20045;-72
2021/12/02 06:58:34;;;;;;;2.38;0.55;;;2.30;99.90;;;;;;5136210;27;20043;-73
2021/12/02 07:01:00;;;;;;;0.47;0.47;;;2.20;99.90;;;;;;5137182;27;20824;-72
2021/12/02 07:03:25;;;;;;;1.45;0.40;;;2.30;99.90;;;;;;5136067;27;20175;-72
2021/12/02 07:05:51;;;;;;;1.48;0.50;;;2.40;99.90;;;;;;5115557;27;20129;-72
2021/12/02 07:08:17;;;;;;;0.38;0.30;;;2.30;99.90;;;;;;5116144;27;20085;-73
2021/12/02 07:10:42;;;;;;;0.32;0.32;;;2.30;99.90;;;;;;5115826;27;20731;-72
2021/12/02 07:13:08;;;;;;;0.80;0.70;;;2.30;99.90;;;;;;5135798;27;20050;-73
2021/12/02 07:15:49;;;;;;;0.68;0.60;;;2.20;99.90;;;;;;5135061;27;20149;-74
2021/12/02 07:18:15;;;;;;;0.43;0.43;;;2.20;99.90;;;;;;5133135;27;20054;-73
2021/12/02 07:20:44;;;;;;;1.70;0.88;;;2.20;99.90;;;;;;5117984;27;20057;-74
2021/12/02 07:23:10;;;;;;;3.28;1.63;;;2.20;99.90;;;;;;5134617;27;20038;-74
2021/12/02 07:25:40;;;;;;;1.40;0.50;;;2.10;99.90;;;;;;5135748;27;20046;-75
2021/12/02 07:28:05;;;;;;;1.27;0.55;;;2.10;99.90;;;;;;5117401;27;20059;-75
2021/12/02 07:30:31;;;;;;;0.50;0.50;;;2.20;99.90;;;;;;5135255;27;20765;-75
2021/12/02 07:32:58;;;;;;;1.00;0.70;;;2.10;99.90;;;;;;5135405;27;20414;-76
2021/12/02 07:35:24;;;;;;;0.65;0.60;;;2.10;99.90;;;;;;5136285;27;20098;-76
2021/12/02 07:37:56;;;;;;;0.88;0.60;;;2.10;99.90;;;;;;5121594;27;20093;-77
2021/12/02 07:40:23;;;;;;;3.40;0.88;;;2.10;99.90;;;;;;5136826;27;20522;-77
2021/12/02 07:42:53;;;;;;;2.85;0.73;;;2.10;99.90;;;;;;5137928;27;20053;-76
2021/12/02 07:45:23;;;;;;;2.90;0.60;;;2.10;99.90;;;;;;5132352;27;20868;-76
2021/12/02 07:47:49;;;;;;;1.33;0.70;;;2.10;99.90;;;;;;5111745;27;20123;-76
2021/12/02 07:50:15;;;;;;;0.65;0.60;;;2.20;99.90;;;;;;5142807;27;20039;-76
2021/12/02 07:52:48;;;;;;;1.50;0.40;;;2.10;99.90;;;;;;5135592;27;20553;-76
2021/12/02 07:55:15;;;;;;;0.60;0.60;;;2.20;99.90;;;;;;5116519;27;20050;-76
2021/12/02 07:57:45;;;;;;;0.75;0.50;;;2.20;99.90;;;;;;5132824;27;20066;-76
2021/12/02 08:00:14;;;;;;;0.47;0.47;;;2.20;99.90;;;;;;5115849;27;20503;-76
2021/12/02 08:02:52;;;;;;;1.70;0.73;;;2.20;99.90;;;;;;5119260;27;20058;-76
2021/12/02 08:05:21;;;;;;;4.40;0.70;;;2.40;99.90;;;;;;5133303;27;20059;-75
2021/12/02 08:07:46;;;;;;;0.70;0.70;;;2.40;99.90;;;;;;5119845;27;20050;-76
2021/12/02 08:10:14;;;;;;;2.13;0.82;;;2.40;99.90;;;;;;5138790;27;20423;-75
2021/12/02 08:12:45;;;;;;;0.85;0.85;;;2.40;99.90;;;;;;5138103;27;20043;-76
2021/12/02 08:15:11;;;;;;;4.15;1.00;;;2.40;99.90;;;;;;5139605;27;20236;-75
2021/12/02 08:17:37;;;;;;;2.15;0.85;;;2.50;99.90;;;;;;5119296;27;20142;-76
2021/12/02 08:20:03;;;;;;;1.05;0.70;;;2.50;99.90;;;;;;5136972;27;20660;-77
2021/12/02 08:22:31;;;;;;;0.77;0.70;;;2.50;99.90;;;;;;5138563;27;20053;-77
2021/12/02 08:24:56;;;;;;;2.58;1.08;;;2.50;99.90;;;;;;5138158;27;20050;-76
2021/12/02 08:27:22;;;;;;;0.63;0.63;;;2.50;99.90;;;;;;5138741;27;20058;-77
2021/12/02 08:29:48;;;;;;;1.50;0.68;;;2.50;99.90;;;;;;5139396;27;20123;-77
2021/12/02 08:32:14;;;;;;;1.83;1.10;;;2.50;99.90;;;;;;5120498;27;20042;-78
2021/12/02 08:34:40;;;;;;;1.20;1.15;;;2.50;99.90;;;;;;5138704;27;20158;-78
2021/12/02 08:37:07;;;;;;;0.80;0.80;;;2.60;99.90;;;;;;5140105;27;20111;-79
2021/12/02 08:39:33;;;;;;;1.35;1.25;;;2.60;99.90;;;;;;5119390;27;20050;-78
2021/12/02 08:41:59;;;;;;;1.95;1.10;;;2.60;99.90;;;;;;5138766;27;20549;-78
2021/12/02 08:44:26;;;;;;;1.38;1.10;;;2.60;99.90;;;;;;5138513;27;20035;-78
2021/12/02 08:46:53;;;;;;;1.27;1.17;;;2.60;99.90;;;;;;5119747;27;20050;-79
2021/12/02 08:49:20;;;;;;;1.25;1.15;;;2.70;99.90;;;;;;5120192;27;20051;-78
2021/12/02 08:51:46;;;;;;;4.15;1.17;;;2.70;99.90;;;;;;5137272;27;20062;-79
2021/12/02 08:54:12;;;;;;;2.17;1.33;;;2.70;99.90;;;;;;5138792;27;20788;-79
2021/12/02 08:56:39;;;;;;;1.60;1.40;;;2.70;99.90;;;;;;5138233;27;20054;-79
2021/12/02 08:59:05;;;;;;;4.45;1.50;;;2.70;99.90;;;;;;5138339;27;20035;-79
2021/12/02 09:01:33;;;;;;;1.58;0.98;;;2.80;99.90;;;;;;5119739;27;20097;-79
2021/12/02 09:03:58;;;;;;;2.67;1.65;;;2.80;99.90;;;;;;5137074;27;20058;-79
2021/12/02 09:06:24;;;;;;;1.52;1.30;;;2.90;99.90;;;;;;5137437;27;20042;-78
2021/12/02 09:08:53;;;;;;;3.47;1.38;;;3.00;99.90;;;;;;5118432;27;20050;-77
2021/12/02 09:11:19;;;;;;;2.10;1.95;;;3.10;99.90;;;;;;5136386;27;20047;-78
2021/12/02 09:13:44;;;;;;;1.50;1.40;;;3.20;99.90;;;;;;5130145;27;20062;-77
2021/12/02 09:16:11;;;;;;;4.57;1.48;;;3.40;99.90;;;;;;5129757;27;20046;-77
2021/12/02 09:18:36;;;;;;;3.50;1.10;;;3.50;99.90;;;;;;5138172;27;20046;-76
2021/12/02 09:21:02;;;;;;;2.70;1.20;;;3.50;99.90;;;;;;5131059;27;20127;-76
2021/12/02 09:23:28;;;;;;;1.23;1.00;;;3.60;99.90;;;;;;5115520;27;20142;-75
2021/12/02 09:25:53;;;;;;;1.67;1.40;;;3.60;99.90;;;;;;5132277;27;20133;-76
2021/12/02 09:28:19;;;;;;;2.47;1.08;;;3.70;99.90;;;;;;5130972;27;20082;-75
2021/12/02 09:30:45;;;;;;;1.15;0.73;;;3.70;99.90;;;;;;5117845;27;20054;-75
2021/12/02 09:33:10;;;;;;;1.10;1.00;;;3.80;99.90;;;;;;5137866;27;20042;-75
2021/12/02 09:35:36;;;;;;;2.20;1.10;;;3.80;99.90;;;;;;5137983;27;20171;-75
2021/12/02 09:38:05;;;;;;;4.78;1.50;;;3.90;99.90;;;;;;5140591;27;20076;-76
2021/12/02 09:40:31;;;;;;;1.45;1.17;;;3.90;99.90;;;;;;5119547;27;20493;-77
2021/12/02 09:42:57;;;;;;;1.80;1.23;;;3.90;99.90;;;;;;5138075;27;20042;-76
2021/12/02 09:45:23;;;;;;;2.10;1.08;;;3.90;99.90;;;;;;5139924;27;20142;-75
2021/12/02 09:47:50;;;;;;;1.27;0.90;;;3.90;99.90;;;;;;5121936;27;20051;-75
2021/12/02 09:50:25;;;;;;;0.90;0.90;;;4.00;99.90;;;;;;5139173;27;20110;-76
2021/12/02 09:52:52;;;;;;;0.65;0.65;;;4.00;99.90;;;;;;5121732;27;20066;-77
2021/12/02 09:57:47;;;;;;;0.85;0.73;;;4.00;99.90;;;;;;5140590;27;20786;-78
2021/12/02 10:00:21;;;;;;;2.53;0.98;;;4.10;99.90;;;;;;5120847;27;20050;-79
2021/12/02 10:03:15;;;;;;;1.23;1.13;;;4.10;99.90;;;;;;5121526;27;20047;-79
2021/12/02 10:05:41;;;;;;;1.15;0.70;;;4.20;99.90;;;;;;5119288;27;20585;-80
2021/12/02 10:08:12;;;;;;;3.92;0.85;;;4.30;99.90;;;;;;5139433;27;20057;-79
2021/12/02 10:10:52;;;;;;;1.73;0.77;;;4.30;99.90;;;;;;5138410;27;20061;-80
2021/12/02 10:16:22;;;;;;;2.03;1.00;;;4.10;99.90;;;;;;5109318;27;20166;-84
2021/12/02 10:18:56;;;;;;;1.52;0.88;;;3.80;99.90;;;;;;5118521;27;20834;-86
2021/12/02 10:21:31;;;;;;;0.63;0.63;;;3.50;99.90;;;;;;5136201;27;20073;-83
2021/12/02 10:24:08;;;;;;;0.50;0.50;;;3.00;99.90;;;;;;5136432;27;20070;-78
2021/12/02 10:26:43;;;;;;;1.38;0.47;;;2.70;99.90;;;;;;5138270;27;20050;-77
2021/12/02 10:29:12;;;;;;;0.32;0.32;;;2.40;99.90;;;;;;5119890;27;20231;-72
2021/12/02 10:31:38;;;;;;;1.50;0.80;;;2.30;99.90;;;;;;5139011;27;20039;-73
2021/12/02 10:34:06;;;;;;;0.30;0.30;;;2.30;99.90;;;;;;5139268;27;20051;-76
2021/12/02 10:36:45;;;;;;;0.45;0.45;;;2.30;99.90;;;;;;5121535;27;20092;-78
2021/12/02 10:39:18;;;;;;;1.50;0.80;;;2.40;99.90;;;;;;5151137;27;20119;-80
2021/12/02 10:41:46;;;;;;;0.60;0.60;;;2.40;99.90;;;;;;5120470;27;20874;-81
2021/12/02 10:44:20;;;;;;;0.77;0.50;;;2.60;99.90;;;;;;5140149;27;20049;-82
2021/12/02 10:47:03;;;;;;;1.80;0.50;;;2.60;99.90;;;;;;5141195;27;20051;-78
2021/12/02 10:49:42;;;;;;;1.83;1.17;;;2.70;99.90;;;;;;5138623;27;20046;-76
2021/12/02 10:52:13;;;;;;;0.98;0.63;;;2.80;99.90;;;;;;5119044;27;20763;-76
2021/12/02 10:54:42;;;;;;;0.68;0.68;;;2.90;99.90;;;;;;5138351;27;20046;-75
2021/12/02 10:57:18;;;;;;;0.95;0.50;;;2.90;99.90;;;;;;5136805;27;21080;-76
2021/12/02 10:59:48;;;;;;;1.30;0.82;;;3.00;99.90;;;;;;5116671;27;20317;-75
2021/12/02 11:02:34;;;;;;;1.08;0.52;;;3.00;99.90;;;;;;5137205;27;20058;-74
2021/12/02 11:05:06;;;;;;;1.58;0.50;;;2.90;99.90;;;;;;5138528;27;20755;-74
2021/12/02 11:07:40;;;;;;;0.70;0.70;;;3.00;99.90;;;;;;5137809;27;20038;-74
2021/12/02 11:10:10;;;;;;;1.48;1.38;;;3.00;99.90;;;;;;5118809;27;20051;-74
2021/12/02 11:12:39;;;;;;;1.10;0.98;;;2.90;99.90;;;;;;5136299;27;20501;-74
2021/12/02 11:15:12;;;;;;;3.42;1.77;;;2.90;99.90;;;;;;5139002;27;20082;-75
2021/12/02 11:17:53;;;;;;;4.15;2.22;;;2.90;99.90;;;;;;5106983;27;20154;-74
2021/12/02 11:20:29;;;;;;;2.40;2.20;;;2.90;99.90;;;;;;5138929;27;20039;-74
2021/12/02 11:23:05;;;;;;;2.15;1.80;;;2.80;99.90;;;;;;5126364;27;20242;-74
2021/12/02 11:25:35;;;;;;;2.25;2.05;;;2.70;99.90;;;;;;5120052;27;20068;-75
2021/12/02 11:28:07;;;;;;;1.08;1.02;;;2.70;99.90;;;;;;5120989;27;20051;-75
2021/12/02 11:30:33;;;;;;;1.15;1.13;;;2.60;99.90;;;;;;5119586;27;20057;-76
2021/12/02 11:33:04;;;;;;;2.00;1.20;;;2.60;99.90;;;;;;5139783;27;20149;-77
2021/12/02 11:35:42;;;;;;;2.08;1.85;;;2.50;99.90;;;;;;5140615;27;20046;-77
2021/12/02 11:38:26;;;;;;;1.05;0.90;;;2.50;99.90;;;;;;5128961;27;20047;-78
2021/12/02 11:41:03;;;;;;;0.95;0.80;;;2.60;99.90;;;;;;5140259;27;20508;-78
2021/12/02 11:43:34;;;;;;;1.58;1.30;;;2.70;99.90;;;;;;5140721;27;20158;-78
2021/12/02 11:46:02;;;;;;;1.40;0.85;;;2.80;99.90;;;;;;5141056;27;20105;-78
2021/12/02 11:48:31;;;;;;;2.03;1.00;;;2.90;99.90;;;;;;5122553;27;20118;-78
2021/12/02 11:50:59;;;;;;;0.80;0.80;;;2.90;99.90;;;;;;5121915;27;20145;-80
2021/12/02 11:53:26;;;;;;;1.02;0.98;;;3.00;99.90;;;;;;5140651;27;20045;-79
2021/12/02 11:55:55;;;;;;;2.42;1.90;;;3.20;99.90;;;;;;5141392;27;20047;-79
2021/12/02 11:58:21;;;;;;;1.15;1.08;;;3.30;99.90;;;;;;5140721;27;20062;-79
2021/12/02 12:00:48;;;;;;;0.95;0.90;;;3.40;99.90;;;;;;5122211;27;20046;-80
2021/12/02 12:03:22;;;;;;;1.65;1.10;;;3.40;99.90;;;;;;5140242;27;20663;-80
2021/12/02 12:06:00;;;;;;;5.57;0.98;;;3.40;99.90;;;;;;5139465;27;20149;-79
2021/12/02 12:08:37;;;;;;;2.42;1.67;;;3.30;99.90;;;;;;5137799;27;20054;-79
2021/12/02 12:11:24;;;;;;;1.15;0.73;;;3.20;99.90;;;;;;5139501;27;20045;-80
2021/12/02 12:13:56;;;;;;;1.55;0.57;;;3.20;99.90;;;;;;5136813;27;20050;-80
2021/12/02 12:16:28;;;;;;;1.23;0.80;;;3.20;99.90;;;;;;5121149;27;20505;-80
2021/12/02 12:18:55;;;;;;;1.63;1.00;;;3.10;99.90;;;;;;5118936;27;20039;-79
2021/12/02 12:21:36;;;;;;;0.90;0.90;;;3.10;99.90;;;;;;5139079;27;20566;-79
2021/12/02 12:24:02;;;;;;;1.83;1.00;;;3.10;99.90;;;;;;5120556;27;20081;-80
2021/12/02 12:26:38;;;;;;;1.88;0.93;;;2.60;99.90;;;;;;5139414;27;20063;-79
2021/12/02 12:29:03;;;;;;;0.80;0.80;;;3.20;99.90;;;;;;5120685;27;20107;-78
2021/12/02 12:31:36;;;;;;;0.85;0.85;;;3.20;99.90;;;;;;5120219;27;20765;-79
2021/12/02 12:34:51;;;;;;;1.88;1.40;;;3.30;99.90;;;;;;5138144;27;20042;-79
2021/12/02 12:37:24;;;;;;;0.75;0.73;;;3.50;99.90;;;;;;5123496;27;20204;-78
2021/12/02 12:40:13;;;;;;;0.70;0.70;;;3.50;99.90;;;;;;5138705;27;20055;-80
2021/12/02 12:42:46;;;;;;;0.55;0.52;;;3.40;99.90;;;;;;5120724;27;20051;-81
2021/12/02 12:45:36;;;;;;;0.57;0.57;;;3.20;99.90;;;;;;5118603;27;20047;-76
2021/12/02 12:48:04;;;;;;;0.68;0.68;;;3.00;99.90;;;;;;5120930;27;20769;-80
2021/12/02 12:50:33;;;;;;;1.48;0.90;;;2.80;99.90;;;;;;5139716;27;20054;-78
2021/12/02 12:53:05;;;;;;;1.20;0.85;;;2.60;99.90;;;;;;5138888;27;20038;-78
2021/12/02 12:56:01;;;;;;;0.85;0.50;;;2.70;99.90;;;;;;5126086;27;20054;-78
2021/12/02 12:58:32;;;;;;;0.70;0.70;;;2.70;99.90;;;;;;5106188;27;20877;-78
2021/12/02 13:01:18;;;;;;;0.80;0.70;;;2.60;99.90;;;;;;5120440;27;20046;-78
2021/12/02 13:04:01;;;;;;;0.70;0.70;;;2.80;99.90;;;;;;5120101;27;20138;-79
2021/12/02 13:06:27;;;;;;;1.42;1.25;;;2.80;99.90;;;;;;5135067;27;20035;-78
2021/12/02 13:09:01;;;;;;;0.93;0.80;;;2.90;99.90;;;;;;5118284;27;20062;-77
2021/12/02 13:11:31;;;;;;;0.70;0.70;;;2.90;99.90;;;;;;5134607;27;20042;-77
2021/12/02 13:13:58;;;;;;;1.27;0.95;;;2.90;99.90;;;;;;5137477;27;20832;-80
2021/12/02 13:16:23;;;;;;;0.50;0.50;;;2.90;99.90;;;;;;5136348;27;20101;-79
2021/12/02 13:18:54;;;;;;;0.75;0.70;;;2.90;99.90;;;;;;5136642;27;20563;-81
2021/12/02 13:21:35;;;;;;;0.75;0.43;;;2.90;99.90;;;;;;5118218;27;20046;-82
2021/12/02 13:24:06;;;;;;;0.40;0.40;;;3.00;99.90;;;;;;5116529;27;20061;-84